Time;durP1;ratioP1;P1;durP2;ratioP2;P2;SDS_P1;SDS_P2;PMS_P1;PMS_P2;Temp;Humidity;BMP_temperature;BMP_pressure;BME280_temperature;BME280_humidity;BME280_pressure;Samples;Min_cycle;Max_cycle;Signal;HPM_P1;HPM_P2
2023/10/23 00:00:51;;;;;;;13.50;3.40;;;;;;;7.48;100.00;99907.59;4991199;28;20230;-73
2023/10/23 00:03:17;;;;;;;8.77;3.63;;;;;;;7.42;100.00;99909.53;4992941;28;20223;-73
2023/10/23 00:05:42;;;;;;;8.17;4.37;;;;;;;7.37;100.00;99902.97;4993690;28;20179;-74
2023/10/23 00:08:07;;;;;;;10.20;4.20;;;;;;;7.37;100.00;99906.34;4993376;28;20186;-73
2023/10/23 00:10:32;;;;;;;9.87;4.07;;;;;;;7.25;100.00;99907.72;4986288;28;20643;-74
2023/10/23 00:12:57;;;;;;;6.27;3.90;;;;;;;7.20;100.00;99924.19;5005199;28;20200;-73
2023/10/23 00:15:23;;;;;;;9.80;4.07;;;;;;;7.16;100.00;99920.94;4994849;28;20194;-74
2023/10/23 00:17:48;;;;;;;9.17;4.00;;;;;;;7.13;100.00;99917.66;4993431;28;20241;-74
2023/10/23 00:20:14;;;;;;;8.53;3.40;;;;;;;7.14;100.00;99916.78;4985072;28;20191;-74
2023/10/23 00:22:39;;;;;;;12.13;4.33;;;;;;;7.11;100.00;99926.22;4992401;28;20203;-74
2023/10/23 00:25:05;;;;;;;5.90;3.50;;;;;;;7.16;100.00;99926.03;4993339;28;20278;-74
2023/10/23 00:27:30;;;;;;;8.13;3.67;;;;;;;7.02;100.00;99934.31;4994258;28;20180;-74
2023/10/23 00:29:55;;;;;;;9.60;3.70;;;;;;;7.00;100.00;99925.88;4994479;28;20211;-74
2023/10/23 00:32:21;;;;;;;8.00;3.30;;;;;;;7.01;100.00;99924.13;4999082;28;20658;-74
2023/10/23 00:34:46;;;;;;;10.13;3.60;;;;;;;6.96;100.00;99924.34;4993071;28;20183;-73
2023/10/23 00:37:11;;;;;;;7.53;3.50;;;;;;;6.93;100.00;99921.91;4994257;28;20263;-74
2023/10/23 00:39:36;;;;;;;8.40;3.87;;;;;;;6.91;100.00;99919.41;4994229;28;20179;-73
2023/10/23 00:42:02;;;;;;;7.93;3.67;;;;;;;6.94;100.00;99921.00;4998829;28;20230;-73
2023/10/23 00:44:30;;;;;;;6.93;3.00;;;;;;;6.85;100.00;99924.78;4983933;28;20187;-74
2023/10/23 00:46:56;;;;;;;10.47;4.40;;;;;;;6.82;100.00;99930.00;4994294;28;20186;-73
2023/10/23 00:49:21;;;;;;;8.80;4.00;;;;;;;6.68;100.00;99932.31;4992834;28;20187;-74
2023/10/23 00:51:46;;;;;;;10.60;4.20;;;;;;;6.66;100.00;99936.66;4996277;28;20248;-73
2023/10/23 00:54:14;;;;;;;8.93;3.73;;;;;;;6.62;100.00;99935.94;4992767;28;20195;-74
2023/10/23 00:56:40;;;;;;;6.43;3.70;;;;;;;6.66;100.00;99937.50;4992336;28;20191;-74
2023/10/23 00:59:08;;;;;;;6.83;3.67;;;;;;;6.55;100.00;99937.09;4992878;28;20219;-74
2023/10/23 01:01:35;;;;;;;11.47;3.70;;;;;;;6.56;100.00;99933.66;4984763;28;20365;-74
2023/10/23 01:04:01;;;;;;;12.47;3.70;;;;;;;6.61;100.00;99932.56;4992682;28;20262;-74
2023/10/23 01:06:27;;;;;;;10.87;3.67;;;;;;;6.51;100.00;99930.44;4992280;28;20263;-75
2023/10/23 01:08:53;;;;;;;8.70;3.73;;;;;;;6.56;100.00;99931.09;4992442;28;20186;-74
2023/10/23 01:11:19;;;;;;;5.87;3.17;;;;;;;6.57;100.00;99930.19;4985276;28;20248;-75
2023/10/23 01:13:44;;;;;;;12.17;4.33;;;;;;;6.57;100.00;99927.66;4998880;28;20241;-74
2023/10/23 01:16:09;;;;;;;9.57;4.00;;;;;;;6.60;100.00;99932.66;4992239;28;20212;-74
2023/10/23 01:18:35;;;;;;;9.77;3.43;;;;;;;6.56;100.00;99920.88;4993224;28;20203;-74
2023/10/23 01:21:00;;;;;;;11.60;4.20;;;;;;;6.61;100.00;99936.84;4990282;28;20222;-74
2023/10/23 01:23:28;;;;;;;12.20;3.93;;;;;;;6.53;100.00;99937.16;5000915;28;20270;-74
2023/10/23 01:25:54;;;;;;;7.00;3.70;;;;;;;6.50;100.00;99932.19;4991923;28;20375;-74
2023/10/23 01:28:19;;;;;;;6.83;3.67;;;;;;;6.47;100.00;99932.28;4992202;28;20330;-74
2023/10/23 01:30:44;;;;;;;9.17;3.67;;;;;;;6.46;100.00;99936.59;4988425;28;20226;-74
2023/10/23 01:33:10;;;;;;;9.00;4.00;;;;;;;6.46;100.00;99938.28;5002386;28;20245;-74
2023/10/23 01:35:35;;;;;;;8.03;3.30;;;;;;;6.42;100.00;99934.22;4991845;28;20171;-75
2023/10/23 01:38:01;;;;;;;9.83;3.50;;;;;;;6.42;100.00;99924.81;4993325;28;20606;-74
2023/10/23 01:40:26;;;;;;;7.27;3.43;;;;;;;6.33;100.00;99930.28;4984441;28;20225;-75
2023/10/23 01:42:51;;;;;;;7.70;3.80;;;;;;;6.30;100.00;99932.94;4991152;28;20784;-74
2023/10/23 01:45:18;;;;;;;9.10;4.10;;;;;;;6.27;100.00;99933.09;4992662;28;20183;-74
2023/10/23 01:47:44;;;;;;;11.97;4.20;;;;;;;6.27;100.00;99933.91;4993314;28;20182;-74
2023/10/23 01:50:09;;;;;;;15.70;3.77;;;;;;;6.28;100.00;99939.88;4983780;28;20192;-73
2023/10/23 01:52:35;;;;;;;12.00;4.27;;;;;;;6.21;100.00;99935.88;4990801;28;20222;-74
2023/10/23 01:55:00;;;;;;;12.93;4.03;;;;;;;6.16;100.00;99938.59;4991472;28;20209;-74
2023/10/23 01:57:25;;;;;;;8.50;4.17;;;;;;;6.22;100.00;99937.56;4991528;28;20645;-74
2023/10/23 01:59:52;;;;;;;5.87;4.33;;;;;;;6.14;100.00;99935.31;4992706;28;20190;-74
2023/10/23 02:02:17;;;;;;;11.07;4.13;;;;;;;6.11;100.00;99928.56;4981900;28;20732;-73
2023/10/23 02:04:42;;;;;;;10.43;4.33;;;;;;;6.02;100.00;99933.22;4991105;28;20278;-74
2023/10/23 02:07:08;;;;;;;9.60;4.47;;;;;;;5.99;100.00;99934.16;5006865;28;20613;-74
2023/10/23 02:09:33;;;;;;;8.20;4.00;;;;;;;5.93;100.00;99932.66;4991014;28;20175;-73
2023/10/23 02:12:00;;;;;;;10.17;3.73;;;;;;;5.98;100.00;99927.38;4996154;28;20596;-73
2023/10/23 02:14:26;;;;;;;10.20;4.10;;;;;;;5.98;100.00;99927.38;4992664;28;20211;-74
2023/10/23 02:16:51;;;;;;;11.63;4.70;;;;;;;6.01;100.00;99927.28;4992521;28;20266;-73
2023/10/23 02:19:16;;;;;;;8.13;4.03;;;;;;;5.99;100.00;99931.59;4992392;28;20632;-74
2023/10/23 02:21:49;;;;;;;12.03;4.00;;;;;;;5.94;100.00;99934.31;4983760;28;20266;-73
2023/10/23 02:24:14;;;;;;;9.83;4.30;;;;;;;5.89;100.00;99928.56;4990781;28;20241;-74
2023/10/23 02:26:40;;;;;;;6.60;3.63;;;;;;;5.83;100.00;99933.88;4991034;28;20645;-73
2023/10/23 02:29:05;;;;;;;8.90;4.17;;;;;;;5.81;100.00;99935.66;4992341;28;20218;-73
2023/10/23 02:31:30;;;;;;;11.33;4.20;;;;;;;5.77;100.00;99936.66;4992429;28;20295;-74
2023/10/23 02:33:56;;;;;;;9.63;3.93;;;;;;;5.74;100.00;99935.06;4989741;28;20240;-74
2023/10/23 02:36:21;;;;;;;8.90;3.60;;;;;;;5.75;100.00;99928.22;4992578;28;20535;-74
2023/10/23 02:38:46;;;;;;;11.27;4.40;;;;;;;5.74;100.00;99937.63;4991571;28;20195;-74
2023/10/23 02:41:12;;;;;;;7.00;3.80;;;;;;;5.69;100.00;99936.94;4984079;28;20230;-73
2023/10/23 02:43:37;;;;;;;8.83;3.60;;;;;;;5.66;100.00;99934.50;4997563;28;20182;-74
2023/10/23 02:46:04;;;;;;;5.77;3.60;;;;;;;5.65;100.00;99937.94;4992489;28;20190;-73
2023/10/23 02:48:30;;;;;;;5.60;3.60;;;;;;;5.61;100.00;99944.06;4990386;28;20210;-73
2023/10/23 02:50:56;;;;;;;11.30;3.90;;;;;;;5.63;100.00;99940.56;4983887;28;20724;-73
2023/10/23 02:53:22;;;;;;;7.67;3.73;;;;;;;5.59;100.00;99950.94;4990005;28;20198;-73
2023/10/23 02:55:48;;;;;;;7.47;3.73;;;;;;;5.58;100.00;99952.66;4990712;28;20240;-74
2023/10/23 02:58:13;;;;;;;9.23;4.77;;;;;;;5.56;100.00;99951.88;4991953;28;20283;-74
2023/10/23 03:00:39;;;;;;;11.40;4.20;;;;;;;5.54;100.00;99953.63;4983650;28;20316;-73
2023/10/23 03:03:04;;;;;;;6.60;3.63;;;;;;;5.49;100.00;99955.53;5001574;28;20234;-75
2023/10/23 03:05:30;;;;;;;4.60;3.87;;;;;;;5.42;100.00;99964.28;4992165;28;20687;-74
2023/10/23 03:07:55;;;;;;;5.60;3.70;;;;;;;5.35;100.00;99961.13;4991930;28;20192;-74
2023/10/23 03:10:20;;;;;;;8.23;3.63;;;;;;;5.32;100.00;99967.16;4984214;28;20243;-74
2023/10/23 03:12:45;;;;;;;10.03;3.70;;;;;;;5.33;100.00;99975.63;5003957;28;20202;-74
2023/10/23 03:15:11;;;;;;;9.07;4.37;;;;;;;5.33;100.00;99973.94;4990711;28;20333;-74
2023/10/23 03:17:36;;;;;;;6.97;3.30;;;;;;;5.37;100.00;99969.56;4990441;28;20215;-75
2023/10/23 03:20:03;;;;;;;9.13;3.90;;;;;;;5.40;100.00;99964.34;4991840;28;20187;-75
2023/10/23 03:22:28;;;;;;;7.87;3.63;;;;;;;5.43;100.00;99968.50;4963465;28;20593;-76
2023/10/23 03:24:53;;;;;;;6.97;3.40;;;;;;;5.43;100.00;99964.25;4991791;28;20267;-75
2023/10/23 03:27:18;;;;;;;6.13;3.77;;;;;;;5.50;100.00;99964.84;4991799;28;20190;-75
2023/10/23 03:29:44;;;;;;;8.53;3.90;;;;;;;5.55;100.00;99957.03;4992008;28;20200;-75
2023/10/23 03:32:09;;;;;;;8.00;3.23;;;;;;;5.63;100.00;99955.88;4975197;28;20229;-76
2023/10/23 03:34:35;;;;;;;6.27;3.63;;;;;;;5.67;100.00;99959.16;4983944;28;20199;-76
2023/10/23 03:37:00;;;;;;;8.77;3.93;;;;;;;5.75;100.00;99958.84;4987248;28;20195;-75
2023/10/23 03:39:25;;;;;;;10.07;4.27;;;;;;;5.75;100.00;99962.22;4990270;28;20183;-75
2023/10/23 03:41:50;;;;;;;8.43;3.80;;;;;;;5.77;100.00;99965.56;4994753;28;20233;-75
2023/10/23 03:44:16;;;;;;;8.10;3.90;;;;;;;5.76;100.00;99961.34;4993071;28;20693;-76
2023/10/23 03:46:41;;;;;;;7.40;4.00;;;;;;;5.82;100.00;99958.56;4991403;28;20187;-75
2023/10/23 03:49:06;;;;;;;8.03;4.37;;;;;;;5.69;100.00;99949.69;4991791;28;20545;-75
2023/10/23 03:51:32;;;;;;;16.40;6.50;;;;;;;5.69;100.00;99959.09;4982845;28;20234;-75
2023/10/23 03:53:57;;;;;;;14.27;5.37;;;;;;;5.58;100.00;99950.09;4995255;28;20666;-75
2023/10/23 03:56:22;;;;;;;28.40;5.37;;;;;;;5.44;100.00;99953.13;4994587;28;20197;-74
2023/10/23 03:58:47;;;;;;;33.63;5.90;;;;;;;5.57;100.00;99952.69;4995019;28;20194;-74
2023/10/23 04:01:13;;;;;;;24.90;6.30;;;;;;;5.77;100.00;99949.44;4986653;28;20335;-75
2023/10/23 04:03:38;;;;;;;38.83;8.03;;;;;;;5.92;100.00;99945.47;5000667;28;20234;-75
2023/10/23 04:06:04;;;;;;;94.53;8.87;;;;;;;5.95;100.00;99940.22;4995408;28;20193;-76
2023/10/23 04:08:29;;;;;;;93.07;8.50;;;;;;;5.96;100.00;99942.72;4983132;28;20182;-75
2023/10/23 04:10:55;;;;;;;66.27;7.80;;;;;;;6.08;100.00;99940.66;4991687;28;20312;-75
2023/10/23 04:13:20;;;;;;;112.93;8.97;;;;;;;6.10;100.00;99944.81;4993026;28;20218;-75
2023/10/23 04:15:56;;;;;;;111.37;8.97;;;;;;;6.12;100.00;99943.00;4994679;28;20582;-75
2023/10/23 04:18:22;;;;;;;86.80;8.23;;;;;;;5.97;100.00;99946.13;4983273;28;20175;-75
2023/10/23 04:20:47;;;;;;;145.93;9.90;;;;;;;5.76;100.00;99943.47;4989913;28;20630;-75
2023/10/23 04:23:12;;;;;;;100.50;10.33;;;;;;;5.89;100.00;99940.47;4992679;28;20177;-75
2023/10/23 04:25:37;;;;;;;59.93;10.00;;;;;;;5.93;100.00;99939.47;4994606;28;20198;-76
2023/10/23 04:28:03;;;;;;;45.63;8.07;;;;;;;5.90;100.00;99929.38;4994812;28;20539;-75
2023/10/23 04:30:29;;;;;;;94.50;7.63;;;;;;;5.90;100.00;99931.94;4987715;28;20231;-77
2023/10/23 04:32:54;;;;;;;33.80;6.40;;;;;;;5.84;100.00;99925.31;4992709;28;20209;-76
2023/10/23 04:35:19;;;;;;;33.90;5.87;;;;;;;6.06;100.00;99927.91;4994375;28;20609;-76
2023/10/23 04:37:44;;;;;;;30.30;6.30;;;;;;;6.12;100.00;99926.88;4992845;28;20188;-76
2023/10/23 04:40:10;;;;;;;40.47;7.03;;;;;;;6.06;100.00;99922.81;4985159;28;20198;-77
2023/10/23 04:42:36;;;;;;;16.47;5.67;;;;;;;6.04;100.00;99932.28;4992471;28;20274;-76
2023/10/23 04:45:01;;;;;;;18.17;5.53;;;;;;;6.16;100.00;99925.03;4994159;28;20182;-78
2023/10/23 04:47:26;;;;;;;16.10;5.07;;;;;;;6.26;100.00;99929.72;4994380;28;20202;-77
2023/10/23 04:49:51;;;;;;;30.43;5.70;;;;;;;6.34;100.00;99923.44;4993920;28;20187;-77
2023/10/23 04:52:18;;;;;;;63.07;6.60;;;;;;;6.18;100.00;99925.78;4998619;28;20276;-78
2023/10/23 04:54:43;;;;;;;46.17;7.30;;;;;;;6.22;100.00;99922.22;4993907;28;20179;-77
2023/10/23 04:57:08;;;;;;;69.63;8.53;;;;;;;6.29;100.00;99927.03;4992981;28;20413;-79
2023/10/23 04:59:34;;;;;;;34.00;5.70;;;;;;;6.31;100.00;99924.41;4992709;28;20674;-79
2023/10/23 05:02:00;;;;;;;36.10;6.63;;;;;;;6.38;100.00;99925.84;4985916;28;20321;-78
2023/10/23 05:04:28;;;;;;;17.70;5.13;;;;;;;6.34;100.00;99918.34;4986463;28;20758;-77
2023/10/23 05:06:55;;;;;;;40.70;6.30;;;;;;;6.30;100.00;99921.03;4987853;28;20183;-79
2023/10/23 05:09:20;;;;;;;39.00;6.20;;;;;;;6.37;100.00;99921.59;4993716;28;20194;-78
2023/10/23 05:11:46;;;;;;;23.53;6.13;;;;;;;6.42;100.00;99922.25;4996458;28;20229;-78
2023/10/23 05:14:12;;;;;;;148.13;8.10;;;;;;;6.29;100.00;99919.38;4995666;28;20214;-78
2023/10/23 05:16:37;;;;;;;29.40;6.33;;;;;;;6.34;100.00;99920.91;4992188;28;20179;-78
2023/10/23 05:19:02;;;;;;;52.77;6.63;;;;;;;6.31;100.00;99934.63;4993439;28;20188;-77
2023/10/23 05:21:28;;;;;;;44.10;6.20;;;;;;;6.16;100.00;99938.59;4993876;28;20237;-77
2023/10/23 05:23:53;;;;;;;106.47;8.00;;;;;;;6.18;100.00;99936.84;4992149;28;20191;-76
2023/10/23 05:26:18;;;;;;;98.00;7.57;;;;;;;6.05;100.00;99951.78;4992421;28;20197;-77
2023/10/23 05:28:44;;;;;;;57.10;6.03;;;;;;;6.10;100.00;99946.50;4992014;28;20193;-76
2023/10/23 05:31:09;;;;;;;66.53;7.00;;;;;;;6.02;100.00;99949.38;4985100;28;20244;-76
2023/10/23 05:33:35;;;;;;;31.63;5.47;;;;;;;6.02;100.00;99951.91;4999466;28;20284;-75
2023/10/23 05:36:09;;;;;;;82.70;6.63;;;;;;;6.04;100.00;99949.28;4991717;28;20179;-75
2023/10/23 05:38:36;;;;;;;47.70;6.93;;;;;;;6.26;100.00;99947.59;4991631;28;20187;-75
2023/10/23 05:41:02;;;;;;;33.03;5.87;;;;;;;6.25;100.00;99945.09;4978108;28;20224;-75
2023/10/23 05:43:27;;;;;;;49.00;7.17;;;;;;;6.42;100.00;99949.53;5000297;28;20718;-75
2023/10/23 05:45:56;;;;;;;82.73;8.43;;;;;;;6.46;100.00;99959.59;4991900;28;20262;-75
2023/10/23 05:48:22;;;;;;;49.83;7.43;;;;;;;6.28;100.00;99955.19;4993260;28;20650;-75
2023/10/23 05:51:02;;;;;;;43.53;7.87;;;;;;;6.19;100.00;99961.50;4984490;28;20244;-74
2023/10/23 05:53:27;;;;;;;36.03;6.87;;;;;;;6.08;100.00;99963.63;4991139;28;20234;-74
2023/10/23 05:55:54;;;;;;;32.50;7.73;;;;;;;6.27;100.00;99964.56;4993381;28;20219;-75
2023/10/23 05:58:19;;;;;;;31.90;8.30;;;;;;;6.35;100.00;99958.31;4991456;28;20175;-75
2023/10/23 06:00:45;;;;;;;17.73;7.27;;;;;;;6.53;100.00;99962.72;4984633;28;20270;-75
2023/10/23 06:03:10;;;;;;;79.10;9.53;;;;;;;6.51;100.00;99972.19;5001869;28;20230;-74
2023/10/23 06:05:41;;;;;;;19.33;8.10;;;;;;;6.44;100.00;99969.03;4992895;28;20218;-75
2023/10/23 06:08:06;;;;;;;40.53;9.50;;;;;;;6.52;100.00;99970.44;4991478;28;20270;-74
2023/10/23 06:10:31;;;;;;;43.80;10.10;;;;;;;6.62;100.00;99967.47;4984467;28;20365;-75
2023/10/23 06:12:57;;;;;;;44.27;11.13;;;;;;;6.75;100.00;99966.97;5003387;28;20194;-75
2023/10/23 06:15:22;;;;;;;32.17;10.27;;;;;;;6.88;100.00;99968.09;4992621;28;20193;-74
2023/10/23 06:17:48;;;;;;;27.87;10.37;;;;;;;6.91;100.00;99968.00;4991921;28;20180;-74
2023/10/23 06:20:14;;;;;;;13.03;9.50;;;;;;;6.97;100.00;99969.47;4983688;28;20294;-74
2023/10/23 06:22:39;;;;;;;17.03;10.23;;;;;;;6.98;100.00;99971.13;4990458;28;20294;-74
2023/10/23 06:25:05;;;;;;;21.13;9.90;;;;;;;7.12;100.00;99970.56;4992613;28;20545;-75
2023/10/23 06:27:30;;;;;;;21.40;10.13;;;;;;;6.91;100.00;99967.19;4992284;28;20179;-75
2023/10/23 06:29:55;;;;;;;17.57;9.40;;;;;;;7.10;100.00;99974.91;4992438;28;20266;-74
2023/10/23 06:32:21;;;;;;;25.10;9.30;;;;;;;7.01;100.00;99975.28;4996937;28;20228;-75
2023/10/23 06:34:50;;;;;;;44.73;10.03;;;;;;;7.05;100.00;99975.09;4990905;28;20508;-74
2023/10/23 06:37:15;;;;;;;55.60;8.90;;;;;;;7.09;100.00;99971.53;4990941;28;20270;-75
2023/10/23 06:39:40;;;;;;;46.60;9.53;;;;;;;7.09;100.00;99966.41;4992585;28;20269;-75
2023/10/23 06:42:06;;;;;;;37.50;9.87;;;;;;;7.23;100.00;99972.66;4996607;28;20217;-75
2023/10/23 06:44:31;;;;;;;26.83;8.03;;;;;;;7.33;100.00;99976.50;4991698;28;20183;-74
2023/10/23 06:46:56;;;;;;;38.20;9.27;;;;;;;7.31;100.00;99973.16;4990682;28;20175;-74
2023/10/23 06:49:21;;;;;;;31.87;9.27;;;;;;;7.39;100.00;99967.69;4992519;28;20270;-74
2023/10/23 06:51:47;;;;;;;45.00;9.10;;;;;;;7.46;100.00;99966.53;4994861;28;20230;-74
2023/10/23 06:54:12;;;;;;;40.57;9.50;;;;;;;7.52;100.00;99965.44;4994173;28;20211;-74
2023/10/23 06:56:37;;;;;;;50.20;9.87;;;;;;;7.65;100.00;99971.66;4991770;28;20175;-74
2023/10/23 06:59:03;;;;;;;26.47;9.13;;;;;;;7.64;100.00;99977.72;4992371;28;20206;-74
2023/10/23 07:01:28;;;;;;;69.83;10.73;;;;;;;7.59;100.00;99971.94;4991987;28;20210;-74
2023/10/23 07:03:54;;;;;;;26.00;9.00;;;;;;;7.75;100.00;99972.09;4990826;28;20194;-74
2023/10/23 07:06:19;;;;;;;61.40;9.47;;;;;;;7.75;100.00;99974.66;4991998;28;20179;-74
2023/10/23 07:08:44;;;;;;;41.77;8.73;;;;;;;7.87;100.00;99966.41;4990465;28;20725;-75
2023/10/23 07:11:18;;;;;;;45.83;9.30;;;;;;;7.76;100.00;99966.06;4990398;28;20226;-74
2023/10/23 07:13:43;;;;;;;76.57;9.27;;;;;;;7.67;100.00;99962.19;4990158;28;20720;-74
2023/10/23 07:16:09;;;;;;;59.17;10.13;;;;;;;7.70;100.00;99961.22;4991917;28;20218;-74
2023/10/23 07:18:34;;;;;;;56.30;10.37;;;;;;;7.69;100.00;99959.56;4990672;28;20275;-74
2023/10/23 07:20:59;;;;;;;54.87;10.30;;;;;;;7.60;100.00;99953.13;4983596;28;20241;-74
2023/10/23 07:23:26;;;;;;;52.33;10.67;;;;;;;7.59;100.00;99957.44;4999300;28;20180;-74
2023/10/23 07:26:01;;;;;;;33.27;10.63;;;;;;;7.67;100.00;99944.28;4990345;28;20191;-75
2023/10/23 07:28:26;;;;;;;65.07;10.93;;;;;;;7.87;100.00;99945.94;4990207;28;20206;-74
2023/10/23 07:30:52;;;;;;;72.63;11.90;;;;;;;7.64;100.00;99946.16;4970503;28;20229;-74
2023/10/23 07:33:17;;;;;;;77.97;12.13;;;;;;;7.72;100.00;99937.22;5004039;28;20239;-74
2023/10/23 07:35:42;;;;;;;98.60;13.07;;;;;;;7.79;100.00;99939.50;4995202;28;20187;-74
2023/10/23 07:38:07;;;;;;;83.43;14.07;;;;;;;7.83;100.00;99918.81;4994121;28;20183;-74
2023/10/23 07:40:33;;;;;;;93.77;14.40;;;;;;;8.04;100.00;99922.09;4988925;28;20291;-74
2023/10/23 07:42:58;;;;;;;103.67;16.03;;;;;;;8.05;100.00;99920.34;4993638;28;20265;-75
2023/10/23 07:45:23;;;;;;;89.90;15.13;;;;;;;8.18;100.00;99924.00;4995611;28;20282;-74
2023/10/23 07:47:48;;;;;;;69.70;15.10;;;;;;;8.29;100.00;99928.63;4995323;28;20648;-74
2023/10/23 07:50:14;;;;;;;59.57;15.63;;;;;;;8.36;100.00;99935.13;4986637;28;20202;-74
2023/10/23 07:52:39;;;;;;;90.30;14.53;;;;;;;8.22;100.00;99947.75;4993387;28;20533;-74
2023/10/23 07:55:05;;;;;;;61.63;13.57;;;;;;;8.42;100.00;99946.81;4995260;28;20627;-74
2023/10/23 07:57:30;;;;;;;77.30;15.30;;;;;;;8.45;100.00;99941.53;4993993;28;20200;-73
2023/10/23 07:59:56;;;;;;;72.70;15.93;;;;;;;8.65;100.00;99942.34;4995023;28;20191;-73
2023/10/23 08:02:21;;;;;;;49.27;16.83;;;;;;;8.51;100.00;99938.72;4999713;28;20277;-74
2023/10/23 08:04:47;;;;;;;71.57;15.87;;;;;;;8.49;100.00;99935.38;4994990;28;20537;-74
2023/10/23 08:07:12;;;;;;;52.90;16.30;;;;;;;8.48;100.00;99933.72;4993754;28;20186;-72
2023/10/23 08:09:38;;;;;;;38.43;15.53;;;;;;;8.25;100.00;99927.13;4994841;28;20251;-72
2023/10/23 08:12:03;;;;;;;60.20;16.87;;;;;;;8.49;100.00;99925.13;4986255;28;20226;-74
2023/10/23 08:14:29;;;;;;;56.17;15.50;;;;;;;8.36;100.00;99927.44;4992969;28;20219;-73
2023/10/23 08:16:54;;;;;;;76.73;15.33;;;;;;;8.47;100.00;99920.97;4993772;28;20184;-74
2023/10/23 08:19:20;;;;;;;47.30;16.57;;;;;;;8.62;100.00;99924.53;4993679;28;20184;-73
2023/10/23 08:21:45;;;;;;;114.67;15.97;;;;;;;8.69;100.00;99933.59;4997197;28;20238;-73
2023/10/23 08:24:10;;;;;;;82.57;15.80;;;;;;;8.75;100.00;99930.72;4993211;28;20183;-72
2023/10/23 08:26:35;;;;;;;52.93;14.77;;;;;;;9.02;100.00;99927.69;4993246;28;20563;-72
2023/10/23 08:29:01;;;;;;;41.60;14.60;;;;;;;8.93;100.00;99923.84;4994403;28;20176;-72
2023/10/23 08:31:26;;;;;;;35.13;14.47;;;;;;;9.43;100.00;99921.31;4986148;28;20221;-73
2023/10/23 08:33:51;;;;;;;24.93;13.83;;;;;;;9.36;100.00;99924.22;4999035;28;20682;-72
2023/10/23 08:36:17;;;;;;;31.53;15.27;;;;;;;9.25;100.00;99923.91;4994577;28;20183;-72
2023/10/23 08:38:42;;;;;;;35.70;15.67;;;;;;;9.31;100.00;99918.47;4994051;28;20194;-71
2023/10/23 08:41:10;;;;;;;32.87;15.43;;;;;;;9.46;100.00;99913.44;4985214;28;20632;-71
2023/10/23 08:43:35;;;;;;;19.63;14.63;;;;;;;9.60;100.00;99921.25;4991968;28;20640;-72
2023/10/23 08:46:01;;;;;;;31.47;16.23;;;;;;;9.50;100.00;99910.66;4994439;28;20184;-71
2023/10/23 08:48:27;;;;;;;25.33;16.57;;;;;;;9.51;100.00;99912.31;4993997;28;20238;-71
2023/10/23 08:50:59;;;;;;;27.70;17.40;;;;;;;9.72;100.00;99906.91;4990477;28;20685;-71
2023/10/23 08:53:33;;;;;;;21.97;17.87;;;;;;;9.62;100.00;99898.06;4992154;28;20749;-72
2023/10/23 08:56:02;;;;;;;21.37;16.07;;;;;;;9.35;100.00;99904.59;4992733;28;20235;-72
2023/10/23 08:58:30;;;;;;;23.43;16.40;;;;;;;9.47;100.00;99900.53;4992098;28;20183;-73
2023/10/23 09:00:56;;;;;;;30.37;18.10;;;;;;;9.49;100.00;99908.97;4985837;28;20296;-73
2023/10/23 09:03:25;;;;;;;25.40;16.47;;;;;;;9.29;100.00;99901.50;4991773;28;20227;-73
2023/10/23 09:05:50;;;;;;;22.60;15.60;;;;;;;9.35;100.00;99894.31;4992674;28;20183;-75
2023/10/23 09:08:18;;;;;;;20.37;15.33;;;;;;;9.48;100.00;99893.66;4992530;28;20180;-76
2023/10/23 09:10:59;;;;;;;21.70;15.47;;;;;;;9.45;100.00;99878.41;4989224;28;20276;-78
2023/10/23 09:13:26;;;;;;;23.67;16.27;;;;;;;9.73;100.00;99876.94;4985119;28;20298;-77
2023/10/23 09:15:51;;;;;;;26.97;17.57;;;;;;;10.12;100.00;99875.63;4988587;28;20639;-76
2023/10/23 09:18:17;;;;;;;22.33;15.13;;;;;;;10.17;100.00;99861.59;4993671;28;20186;-75
2023/10/23 09:20:43;;;;;;;22.47;15.07;;;;;;;10.24;100.00;99859.50;4984484;28;20687;-74
2023/10/23 09:23:11;;;;;;;25.30;15.20;;;;;;;10.45;100.00;99864.38;5002807;28;20172;-74
2023/10/23 09:25:37;;;;;;;20.20;14.57;;;;;;;10.41;100.00;99863.72;4992210;28;20182;-75
2023/10/23 09:28:10;;;;;;;21.27;14.30;;;;;;;10.64;100.00;99859.81;4992008;28;20211;-74
2023/10/23 09:30:35;;;;;;;17.60;13.67;;;;;;;10.65;100.00;99853.75;4987186;28;20242;-73
2023/10/23 09:33:00;;;;;;;19.33;13.27;;;;;;;10.73;100.00;99855.03;5003481;28;20261;-73
2023/10/23 09:35:28;;;;;;;17.73;13.60;;;;;;;10.75;100.00;99853.19;4993009;28;20195;-73
2023/10/23 09:37:53;;;;;;;20.57;11.70;;;;;;;10.61;100.00;99857.41;4991863;28;20293;-73
2023/10/23 09:40:18;;;;;;;20.33;13.27;;;;;;;10.61;100.00;99861.75;4983633;28;20691;-72
2023/10/23 09:42:44;;;;;;;19.97;13.43;;;;;;;10.88;100.00;99856.72;4991310;28;20242;-73
2023/10/23 09:45:10;;;;;;;16.43;12.07;;;;;;;11.08;100.00;99852.94;4991602;28;20195;-72
2023/10/23 09:47:36;;;;;;;17.60;13.03;;;;;;;11.19;100.00;99848.88;4993089;28;20257;-73
2023/10/23 09:50:05;;;;;;;13.17;10.83;;;;;;;11.32;100.00;99849.78;4991451;28;20584;-73
2023/10/23 09:52:34;;;;;;;16.97;11.00;;;;;;;11.04;100.00;99848.06;4981335;28;20215;-72
2023/10/23 09:55:07;;;;;;;19.60;12.10;;;;;;;10.87;100.00;99849.91;4991467;28;20184;-71
2023/10/23 09:57:40;;;;;;;17.10;10.03;;;;;;;10.96;100.00;99846.78;4991793;28;20180;-72
2023/10/23 10:00:13;;;;;;;14.13;9.57;;;;;;;11.08;100.00;99845.19;4965487;28;20619;-72
2023/10/23 10:02:40;;;;;;;13.63;9.53;;;;;;;11.39;100.00;99847.66;4990690;28;20219;-72
2023/10/23 10:05:08;;;;;;;13.17;9.50;;;;;;;11.56;100.00;99844.84;4991432;28;20179;-73
2023/10/23 10:07:48;;;;;;;14.53;8.40;;;;;;;11.29;100.00;99837.91;4991480;28;20187;-73
2023/10/23 10:10:14;;;;;;;12.73;8.30;;;;;;;11.24;100.00;99836.56;4971130;28;20175;-73
2023/10/23 10:12:41;;;;;;;17.33;8.77;;;;;;;11.42;100.00;99829.44;5005261;28;20222;-73
2023/10/23 10:15:10;;;;;;;12.17;8.70;;;;;;;11.25;100.00;99831.31;4991147;28;20191;-73
2023/10/23 10:17:37;;;;;;;17.33;7.83;;;;;;;11.62;100.00;99833.31;4992697;28;20183;-73
2023/10/23 10:20:02;;;;;;;10.47;6.80;;;;;;;11.69;100.00;99837.16;4991286;28;20187;-72
2023/10/23 10:22:34;;;;;;;13.33;7.27;;;;;;;11.76;100.00;99829.88;5000771;28;20744;-71
2023/10/23 10:25:00;;;;;;;11.93;6.80;;;;;;;11.89;100.00;99830.72;4992661;28;20210;-74
2023/10/23 10:27:26;;;;;;;8.53;6.60;;;;;;;11.69;100.00;99823.47;4990945;28;20774;-72
2023/10/23 10:29:51;;;;;;;14.50;7.13;;;;;;;11.59;100.00;99820.66;4990971;28;20183;-72
2023/10/23 10:32:17;;;;;;;13.17;6.53;;;;;;;11.69;100.00;99824.28;4981207;28;20310;-73
2023/10/23 10:34:45;;;;;;;10.37;5.80;;;;;;;11.88;100.00;99818.78;5007283;28;20203;-72
2023/10/23 10:37:10;;;;;;;14.00;6.70;;;;;;;12.07;100.00;99820.22;4992073;28;20266;-72
2023/10/23 10:39:52;;;;;;;10.17;5.37;;;;;;;12.29;100.00;99818.78;4992376;28;20701;-72
2023/10/23 10:42:22;;;;;;;9.30;5.53;;;;;;;12.29;100.00;99808.47;4979239;28;20222;-73
2023/10/23 10:44:59;;;;;;;8.57;5.00;;;;;;;12.12;100.00;99813.00;4983561;28;20278;-73
2023/10/23 10:47:39;;;;;;;6.70;4.57;;;;;;;12.18;100.00;99802.28;4991099;28;20214;-72
2023/10/23 10:50:05;;;;;;;9.43;5.40;;;;;;;12.02;100.00;99794.72;4980650;28;20237;-69
2023/10/23 10:52:35;;;;;;;12.93;5.77;;;;;;;12.13;100.00;99788.88;4990100;28;20710;-72
2023/10/23 10:55:11;;;;;;;9.00;4.67;;;;;;;12.33;100.00;99786.69;4990783;28;20274;-72
2023/10/23 10:57:40;;;;;;;9.67;5.00;;;;;;;12.30;100.00;99781.75;4992365;28;20529;-73
2023/10/23 11:00:06;;;;;;;10.37;4.53;;;;;;;12.24;100.00;99777.81;4980968;28;20179;-72
2023/10/23 11:02:32;;;;;;;10.03;4.97;;;;;;;12.53;100.00;99772.47;4989898;28;20732;-72
2023/10/23 11:04:57;;;;;;;12.67;4.47;;;;;;;12.69;100.00;99762.75;4991067;28;20258;-73
2023/10/23 11:07:26;;;;;;;9.07;4.20;;;;;;;12.95;100.00;99752.38;4994672;28;20180;-73
2023/10/23 11:09:53;;;;;;;8.17;4.03;;;;;;;12.72;100.00;99752.19;4994671;28;20171;-73
2023/10/23 11:12:19;;;;;;;7.27;4.60;;;;;;;12.71;100.00;99754.91;4985701;28;20669;-72
2023/10/23 11:14:45;;;;;;;10.07;4.80;;;;;;;12.75;100.00;99746.84;4994223;28;20249;-72
2023/10/23 11:17:11;;;;;;;7.57;4.50;;;;;;;12.75;100.00;99752.00;4994628;28;20187;-72
2023/10/23 11:19:36;;;;;;;9.53;4.57;;;;;;;12.95;100.00;99739.47;4994400;28;20500;-72